sensor_id;sensor_type;location;lat;lon;timestamp;P1;durP1;ratioP1;P2;durP2;ratioP2
23117;SDS011;11728;50.624;6.014;2022-07-22T00:05:03;28.70;;;14.43;;
23117;SDS011;11728;50.624;6.014;2022-07-22T00:10:19;30.17;;;14.23;;
23117;SDS011;11728;50.624;6.014;2022-07-22T00:15:35;25.58;;;13.07;;
23117;SDS011;11728;50.624;6.014;2022-07-22T00:20:36;23.92;;;12.38;;
23117;SDS011;11728;50.624;6.014;2022-07-22T00:25:49;21.67;;;11.95;;
23117;SDS011;11728;50.624;6.014;2022-07-22T00:31:01;17.38;;;9.57;;
23117;SDS011;11728;50.624;6.014;2022-07-22T00:36:05;20.20;;;9.43;;
23117;SDS011;11728;50.624;6.014;2022-07-22T00:41:18;17.67;;;8.70;;
23117;SDS011;11728;50.624;6.014;2022-07-22T00:46:37;12.65;;;8.65;;
23117;SDS011;11728;50.624;6.014;2022-07-22T00:51:38;17.52;;;9.40;;
23117;SDS011;11728;50.624;6.014;2022-07-22T00:56:54;17.40;;;9.70;;
23117;SDS011;11728;50.624;6.014;2022-07-22T01:02:08;19.75;;;10.20;;
23117;SDS011;11728;50.624;6.014;2022-07-22T01:07:09;15.52;;;9.27;;
23117;SDS011;11728;50.624;6.014;2022-07-22T01:12:25;13.13;;;8.90;;
23117;SDS011;11728;50.624;6.014;2022-07-22T01:17:38;18.67;;;8.90;;
23117;SDS011;11728;50.624;6.014;2022-07-22T01:22:42;22.00;;;9.60;;
23117;SDS011;11728;50.624;6.014;2022-07-22T01:28:03;17.08;;;9.63;;
23117;SDS011;11728;50.624;6.014;2022-07-22T01:33:22;16.10;;;9.30;;
23117;SDS011;11728;50.624;6.014;2022-07-22T01:38:26;17.42;;;9.32;;
23117;SDS011;11728;50.624;6.014;2022-07-22T01:43:38;17.90;;;8.85;;
23117;SDS011;11728;50.624;6.014;2022-07-22T01:48:54;19.33;;;9.55;;
23117;SDS011;11728;50.624;6.014;2022-07-22T01:53:59;16.65;;;8.27;;
23117;SDS011;11728;50.624;6.014;2022-07-22T01:59:12;14.75;;;7.50;;
23117;SDS011;11728;50.624;6.014;2022-07-22T02:04:27;14.43;;;7.15;;
23117;SDS011;11728;50.624;6.014;2022-07-22T02:09:34;22.95;;;7.72;;
23117;SDS011;11728;50.624;6.014;2022-07-22T02:14:44;20.80;;;8.10;;
23117;SDS011;11728;50.624;6.014;2022-07-22T02:20:01;18.42;;;7.88;;
23117;SDS011;11728;50.624;6.014;2022-07-22T02:25:03;14.55;;;8.25;;
23117;SDS011;11728;50.624;6.014;2022-07-22T02:30:14;18.23;;;8.68;;
23117;SDS011;11728;50.624;6.014;2022-07-22T02:35:33;14.20;;;8.07;;
23117;SDS011;11728;50.624;6.014;2022-07-22T02:40:33;21.10;;;9.05;;
23117;SDS011;11728;50.624;6.014;2022-07-22T02:45:49;19.48;;;9.25;;
23117;SDS011;11728;50.624;6.014;2022-07-22T02:50:59;18.90;;;9.35;;
23117;SDS011;11728;50.624;6.014;2022-07-22T02:56:03;18.83;;;9.63;;
23117;SDS011;11728;50.624;6.014;2022-07-22T03:01:20;16.83;;;10.07;;
23117;SDS011;11728;50.624;6.014;2022-07-22T03:06:32;20.73;;;11.50;;
23117;SDS011;11728;50.624;6.014;2022-07-22T03:11:39;20.60;;;10.98;;
23117;SDS011;11728;50.624;6.014;2022-07-22T03:16:52;17.73;;;10.05;;
23117;SDS011;11728;50.624;6.014;2022-07-22T03:22:04;13.32;;;6.55;;
23117;SDS011;11728;50.624;6.014;2022-07-22T03:27:07;13.65;;;7.05;;
23117;SDS011;11728;50.624;6.014;2022-07-22T03:32:23;9.93;;;6.13;;
23117;SDS011;11728;50.624;6.014;2022-07-22T03:37:38;10.25;;;7.20;;
23117;SDS011;11728;50.624;6.014;2022-07-22T03:42:42;15.35;;;7.20;;
23117;SDS011;11728;50.624;6.014;2022-07-22T03:47:52;14.23;;;7.75;;
23117;SDS011;11728;50.624;6.014;2022-07-22T03:53:11;13.52;;;7.97;;
23117;SDS011;11728;50.624;6.014;2022-07-22T03:58:15;18.55;;;9.63;;
23117;SDS011;11728;50.624;6.014;2022-07-22T04:03:24;17.75;;;8.88;;
23117;SDS011;11728;50.624;6.014;2022-07-22T04:08:44;13.60;;;8.40;;
23117;SDS011;11728;50.624;6.014;2022-07-22T04:13:45;12.85;;;8.50;;
23117;SDS011;11728;50.624;6.014;2022-07-22T04:19:03;15.63;;;8.23;;
23117;SDS011;11728;50.624;6.014;2022-07-22T04:25:30;13.38;;;7.43;;
23117;SDS011;11728;50.624;6.014;2022-07-22T04:30:31;12.23;;;8.05;;
23117;SDS011;11728;50.624;6.014;2022-07-22T04:35:32;11.65;;;8.10;;
23117;SDS011;11728;50.624;6.014;2022-07-22T04:40:44;11.75;;;8.45;;
23117;SDS011;11728;50.624;6.014;2022-07-22T04:46:00;15.40;;;9.23;;
23117;SDS011;11728;50.624;6.014;2022-07-22T04:51:05;12.55;;;8.40;;
23117;SDS011;11728;50.624;6.014;2022-07-22T04:56:18;15.30;;;8.02;;
23117;SDS011;11728;50.624;6.014;2022-07-22T05:01:27;9.43;;;6.03;;
23117;SDS011;11728;50.624;6.014;2022-07-22T05:06:29;12.65;;;6.90;;
23117;SDS011;11728;50.624;6.014;2022-07-22T05:11:48;7.20;;;5.43;;
23117;SDS011;11728;50.624;6.014;2022-07-22T05:17:01;10.73;;;6.60;;
23117;SDS011;11728;50.624;6.014;2022-07-22T05:22:07;12.25;;;5.72;;
23117;SDS011;11728;50.624;6.014;2022-07-22T05:27:14;9.50;;;6.07;;
23117;SDS011;11728;50.624;6.014;2022-07-22T05:32:31;12.32;;;6.20;;
23117;SDS011;11728;50.624;6.014;2022-07-22T05:37:34;9.13;;;6.63;;
23117;SDS011;11728;50.624;6.014;2022-07-22T05:42:47;11.70;;;7.03;;
23117;SDS011;11728;50.624;6.014;2022-07-22T05:48:03;11.15;;;7.45;;
23117;SDS011;11728;50.624;6.014;2022-07-22T05:53:11;10.77;;;7.25;;
23117;SDS011;11728;50.624;6.014;2022-07-22T05:58:21;9.15;;;6.50;;
23117;SDS011;11728;50.624;6.014;2022-07-22T06:03:37;11.90;;;6.85;;
23117;SDS011;11728;50.624;6.014;2022-07-22T06:08:41;9.77;;;6.72;;
23117;SDS011;11728;50.624;6.014;2022-07-22T06:13:56;8.60;;;6.47;;
23117;SDS011;11728;50.624;6.014;2022-07-22T06:19:11;8.43;;;6.65;;
23117;SDS011;11728;50.624;6.014;2022-07-22T06:24:16;10.77;;;6.80;;
23117;SDS011;11728;50.624;6.014;2022-07-22T06:29:26;11.35;;;7.53;;
23117;SDS011;11728;50.624;6.014;2022-07-22T06:34:43;15.90;;;8.25;;
23117;SDS011;11728;50.624;6.014;2022-07-22T06:39:44;8.55;;;6.93;;
23117;SDS011;11728;50.624;6.014;2022-07-22T06:44:58;10.45;;;8.55;;
23117;SDS011;11728;50.624;6.014;2022-07-22T06:50:15;10.48;;;8.43;;
23117;SDS011;11728;50.624;6.014;2022-07-22T06:55:15;9.27;;;7.45;;
23117;SDS011;11728;50.624;6.014;2022-07-22T07:00:29;8.25;;;7.32;;
23117;SDS011;11728;50.624;6.014;2022-07-22T07:05:48;9.32;;;7.57;;
23117;SDS011;11728;50.624;6.014;2022-07-22T07:10:52;8.48;;;6.35;;
23117;SDS011;11728;50.624;6.014;2022-07-22T07:16:01;7.97;;;5.55;;
23117;SDS011;11728;50.624;6.014;2022-07-22T07:21:17;7.03;;;5.13;;
23117;SDS011;11728;50.624;6.014;2022-07-22T07:26:19;6.50;;;4.75;;
23117;SDS011;11728;50.624;6.014;2022-07-22T07:31:36;6.18;;;4.78;;
23117;SDS011;11728;50.624;6.014;2022-07-22T07:36:46;7.18;;;5.20;;
23117;SDS011;11728;50.624;6.014;2022-07-22T07:41:49;8.35;;;6.15;;
23117;SDS011;11728;50.624;6.014;2022-07-22T07:47:03;8.18;;;6.03;;
23117;SDS011;11728;50.624;6.014;2022-07-22T07:52:24;8.10;;;5.30;;
23117;SDS011;11728;50.624;6.014;2022-07-22T08:04:58;8.80;;;5.75;;
23117;SDS011;11728;50.624;6.014;2022-07-22T08:11:04;7.25;;;5.45;;
23117;SDS011;11728;50.624;6.014;2022-07-22T08:16:26;6.43;;;5.60;;
23117;SDS011;11728;50.624;6.014;2022-07-22T08:21:27;5.97;;;4.88;;
23117;SDS011;11728;50.624;6.014;2022-07-22T08:26:32;7.93;;;5.05;;
23117;SDS011;11728;50.624;6.014;2022-07-22T08:31:36;8.57;;;5.72;;
23117;SDS011;11728;50.624;6.014;2022-07-22T08:36:48;7.82;;;5.82;;
23117;SDS011;11728;50.624;6.014;2022-07-22T08:42:05;11.68;;;4.85;;
23117;SDS011;11728;50.624;6.014;2022-07-22T08:47:12;6.15;;;4.70;;
23117;SDS011;11728;50.624;6.014;2022-07-22T08:52:39;8.50;;;5.88;;
23117;SDS011;11728;50.624;6.014;2022-07-22T08:57:46;7.50;;;5.88;;
23117;SDS011;11728;50.624;6.014;2022-07-22T09:02:48;9.70;;;8.57;;
23117;SDS011;11728;50.624;6.014;2022-07-22T09:07:59;10.85;;;9.10;;
23117;SDS011;11728;50.624;6.014;2022-07-22T09:13:16;11.10;;;9.90;;
23117;SDS011;11728;50.624;6.014;2022-07-22T09:18:30;12.38;;;8.88;;
23117;SDS011;11728;50.624;6.014;2022-07-22T09:24:26;10.02;;;9.02;;
23117;SDS011;11728;50.624;6.014;2022-07-22T09:29:51;10.27;;;7.90;;
23117;SDS011;11728;50.624;6.014;2022-07-22T09:35:03;9.85;;;7.72;;
23117;SDS011;11728;50.624;6.014;2022-07-22T09:40:12;13.93;;;8.95;;
23117;SDS011;11728;50.624;6.014;2022-07-22T09:45:18;9.48;;;8.55;;
23117;SDS011;11728;50.624;6.014;2022-07-22T09:50:33;9.38;;;8.13;;
23117;SDS011;11728;50.624;6.014;2022-07-22T09:55:46;11.07;;;9.73;;
23117;SDS011;11728;50.624;6.014;2022-07-22T10:00:47;12.98;;;11.77;;
23117;SDS011;11728;50.624;6.014;2022-07-22T10:06:03;12.13;;;10.52;;
23117;SDS011;11728;50.624;6.014;2022-07-22T10:11:07;13.07;;;11.35;;
23117;SDS011;11728;50.624;6.014;2022-07-22T10:16:21;13.25;;;11.55;;
23117;SDS011;11728;50.624;6.014;2022-07-22T10:21:38;13.80;;;12.45;;
23117;SDS011;11728;50.624;6.014;2022-07-22T10:26:46;13.23;;;11.82;;
23117;SDS011;11728;50.624;6.014;2022-07-22T10:58:52;13.18;;;11.88;;
23117;SDS011;11728;50.624;6.014;2022-07-22T11:09:17;12.35;;;11.13;;
23117;SDS011;11728;50.624;6.014;2022-07-22T11:14:31;13.30;;;12.00;;
23117;SDS011;11728;50.624;6.014;2022-07-22T11:19:34;11.05;;;10.05;;
23117;SDS011;11728;50.624;6.014;2022-07-22T11:24:48;13.68;;;12.27;;
23117;SDS011;11728;50.624;6.014;2022-07-22T11:29:55;12.48;;;11.18;;
23117;SDS011;11728;50.624;6.014;2022-07-22T11:35:00;12.52;;;11.32;;
23117;SDS011;11728;50.624;6.014;2022-07-22T11:40:12;12.57;;;11.27;;
23117;SDS011;11728;50.624;6.014;2022-07-22T11:45:28;12.27;;;10.85;;
23117;SDS011;11728;50.624;6.014;2022-07-22T11:50:32;16.00;;;11.68;;
23117;SDS011;11728;50.624;6.014;2022-07-22T11:55:48;12.27;;;11.02;;
23117;SDS011;11728;50.624;6.014;2022-07-22T12:01:01;12.05;;;10.65;;
23117;SDS011;11728;50.624;6.014;2022-07-22T12:06:02;15.20;;;11.20;;
23117;SDS011;11728;50.624;6.014;2022-07-22T12:11:17;12.05;;;10.85;;
23117;SDS011;11728;50.624;6.014;2022-07-22T12:16:37;12.85;;;11.20;;
23117;SDS011;11728;50.624;6.014;2022-07-22T12:21:55;11.82;;;10.57;;
23117;SDS011;11728;50.624;6.014;2022-07-22T12:32:11;12.27;;;10.43;;
23117;SDS011;11728;50.624;6.014;2022-07-22T12:37:34;13.50;;;10.23;;
23117;SDS011;11728;50.624;6.014;2022-07-22T12:42:46;14.47;;;11.93;;
23117;SDS011;11728;50.624;6.014;2022-07-22T12:53:25;15.52;;;10.63;;
23117;SDS011;11728;50.624;6.014;2022-07-22T12:58:47;14.00;;;10.35;;
23117;SDS011;11728;50.624;6.014;2022-07-22T13:04:03;14.00;;;11.13;;
23117;SDS011;11728;50.624;6.014;2022-07-22T13:09:19;12.82;;;10.50;;
23117;SDS011;11728;50.624;6.014;2022-07-22T13:14:22;14.27;;;10.43;;
23117;SDS011;11728;50.624;6.014;2022-07-22T13:19:38;11.20;;;10.00;;
23117;SDS011;11728;50.624;6.014;2022-07-22T13:24:53;16.60;;;12.60;;
23117;SDS011;11728;50.624;6.014;2022-07-22T13:29:54;17.02;;;11.68;;
23117;SDS011;11728;50.624;6.014;2022-07-22T13:35:10;14.15;;;9.82;;
23117;SDS011;11728;50.624;6.014;2022-07-22T13:40:23;13.95;;;10.45;;
23117;SDS011;11728;50.624;6.014;2022-07-22T13:45:24;12.90;;;10.10;;
23117;SDS011;11728;50.624;6.014;2022-07-22T13:50:43;14.98;;;10.68;;
23117;SDS011;11728;50.624;6.014;2022-07-22T13:55:55;13.90;;;9.52;;
23117;SDS011;11728;50.624;6.014;2022-07-22T14:00:56;14.27;;;9.75;;
23117;SDS011;11728;50.624;6.014;2022-07-22T14:06:12;14.30;;;10.23;;
23117;SDS011;11728;50.624;6.014;2022-07-22T14:11:24;14.98;;;10.98;;
23117;SDS011;11728;50.624;6.014;2022-07-22T14:16:28;13.23;;;10.18;;
23117;SDS011;11728;50.624;6.014;2022-07-22T14:21:46;16.35;;;12.18;;
23117;SDS011;11728;50.624;6.014;2022-07-22T14:27:01;16.30;;;11.00;;
23117;SDS011;11728;50.624;6.014;2022-07-22T14:32:02;14.70;;;10.43;;
23117;SDS011;11728;50.624;6.014;2022-07-22T14:37:15;15.68;;;11.32;;
23117;SDS011;11728;50.624;6.014;2022-07-22T14:42:30;17.67;;;11.80;;
23117;SDS011;11728;50.624;6.014;2022-07-22T14:47:33;15.32;;;11.43;;
23117;SDS011;11728;50.624;6.014;2022-07-22T14:52:49;14.57;;;11.15;;
23117;SDS011;11728;50.624;6.014;2022-07-22T14:58:02;15.40;;;11.82;;
23117;SDS011;11728;50.624;6.014;2022-07-22T15:03:05;15.50;;;11.93;;
23117;SDS011;11728;50.624;6.014;2022-07-22T15:08:21;37.65;;;14.13;;
23117;SDS011;11728;50.624;6.014;2022-07-22T15:13:34;21.25;;;13.18;;
23117;SDS011;11728;50.624;6.014;2022-07-22T15:18:38;15.85;;;12.65;;
23117;SDS011;11728;50.624;6.014;2022-07-22T15:23:51;19.33;;;14.18;;
23117;SDS011;11728;50.624;6.014;2022-07-22T15:29:06;16.77;;;13.32;;
23117;SDS011;11728;50.624;6.014;2022-07-22T15:34:13;16.48;;;12.95;;
23117;SDS011;11728;50.624;6.014;2022-07-22T15:39:25;17.17;;;13.60;;
23117;SDS011;11728;50.624;6.014;2022-07-22T15:44:41;20.23;;;14.50;;
23117;SDS011;11728;50.624;6.014;2022-07-22T15:49:42;21.75;;;14.13;;
23117;SDS011;11728;50.624;6.014;2022-07-22T15:54:58;20.63;;;14.77;;
23117;SDS011;11728;50.624;6.014;2022-07-22T16:00:11;23.33;;;14.73;;
23117;SDS011;11728;50.624;6.014;2022-07-22T16:05:15;18.17;;;14.07;;
23117;SDS011;11728;50.624;6.014;2022-07-22T16:10:31;18.98;;;15.35;;
23117;SDS011;11728;50.624;6.014;2022-07-22T16:15:40;18.13;;;14.52;;
23117;SDS011;11728;50.624;6.014;2022-07-22T16:20:47;19.20;;;14.23;;
23117;SDS011;11728;50.624;6.014;2022-07-22T16:26:03;20.27;;;14.27;;
23117;SDS011;11728;50.624;6.014;2022-07-22T16:31:16;18.55;;;15.15;;
23117;SDS011;11728;50.624;6.014;2022-07-22T16:36:18;16.83;;;14.70;;
23117;SDS011;11728;50.624;6.014;2022-07-22T16:41:34;17.73;;;13.18;;
23117;SDS011;11728;50.624;6.014;2022-07-22T16:46:51;19.23;;;14.18;;
23117;SDS011;11728;50.624;6.014;2022-07-22T16:51:52;19.38;;;14.27;;
23117;SDS011;11728;50.624;6.014;2022-07-22T16:57:08;21.58;;;14.18;;
23117;SDS011;11728;50.624;6.014;2022-07-22T17:02:21;17.20;;;13.43;;
23117;SDS011;11728;50.624;6.014;2022-07-22T17:07:25;24.23;;;15.75;;
23117;SDS011;11728;50.624;6.014;2022-07-22T17:12:37;18.85;;;13.40;;
23117;SDS011;11728;50.624;6.014;2022-07-22T17:17:53;18.77;;;14.65;;
23117;SDS011;11728;50.624;6.014;2022-07-22T17:22:53;16.27;;;13.90;;
23117;SDS011;11728;50.624;6.014;2022-07-22T17:28:11;19.80;;;14.48;;
23117;SDS011;11728;50.624;6.014;2022-07-22T17:33:27;18.30;;;14.52;;
23117;SDS011;11728;50.624;6.014;2022-07-22T17:38:28;23.45;;;12.82;;
23117;SDS011;11728;50.624;6.014;2022-07-22T17:43:44;20.33;;;11.48;;
23117;SDS011;11728;50.624;6.014;2022-07-22T17:48:56;16.73;;;11.05;;
23117;SDS011;11728;50.624;6.014;2022-07-22T17:54:02;20.45;;;12.50;;
23117;SDS011;11728;50.624;6.014;2022-07-22T17:59:12;17.55;;;11.93;;
23117;SDS011;11728;50.624;6.014;2022-07-22T18:04:28;19.35;;;11.90;;
23117;SDS011;11728;50.624;6.014;2022-07-22T18:09:32;21.10;;;12.18;;
23117;SDS011;11728;50.624;6.014;2022-07-22T18:14:51;18.20;;;12.55;;
23117;SDS011;11728;50.624;6.014;2022-07-22T18:20:07;20.00;;;12.05;;
23117;SDS011;11728;50.624;6.014;2022-07-22T18:25:09;15.88;;;11.95;;
23117;SDS011;11728;50.624;6.014;2022-07-22T18:30:21;19.77;;;12.25;;
23117;SDS011;11728;50.624;6.014;2022-07-22T18:35:37;18.58;;;12.98;;
23117;SDS011;11728;50.624;6.014;2022-07-22T18:40:38;17.25;;;12.38;;
23117;SDS011;11728;50.624;6.014;2022-07-22T18:45:56;16.25;;;10.45;;
23117;SDS011;11728;50.624;6.014;2022-07-22T18:51:09;17.70;;;11.52;;
23117;SDS011;11728;50.624;6.014;2022-07-22T18:56:12;13.82;;;10.48;;
23117;SDS011;11728;50.624;6.014;2022-07-22T19:01:25;14.55;;;9.80;;
23117;SDS011;11728;50.624;6.014;2022-07-22T19:06:38;17.50;;;9.60;;
23117;SDS011;11728;50.624;6.014;2022-07-22T19:11:41;11.48;;;8.10;;
23117;SDS011;11728;50.624;6.014;2022-07-22T19:16:57;13.73;;;8.43;;
23117;SDS011;11728;50.624;6.014;2022-07-22T19:22:14;12.95;;;7.68;;
23117;SDS011;11728;50.624;6.014;2022-07-22T19:27:14;9.43;;;7.55;;
23117;SDS011;11728;50.624;6.014;2022-07-22T19:32:30;10.90;;;8.23;;
23117;SDS011;11728;50.624;6.014;2022-07-22T19:37:43;14.30;;;10.20;;
23117;SDS011;11728;50.624;6.014;2022-07-22T19:42:49;14.80;;;9.73;;
23117;SDS011;11728;50.624;6.014;2022-07-22T19:47:59;19.58;;;9.90;;
23117;SDS011;11728;50.624;6.014;2022-07-22T19:53:18;14.02;;;10.00;;
23117;SDS011;11728;50.624;6.014;2022-07-22T19:58:19;13.85;;;10.38;;
23117;SDS011;11728;50.624;6.014;2022-07-22T20:03:33;14.18;;;10.45;;
23117;SDS011;11728;50.624;6.014;2022-07-22T20:08:48;16.73;;;10.63;;
23117;SDS011;11728;50.624;6.014;2022-07-22T20:13:55;17.92;;;9.70;;
23117;SDS011;11728;50.624;6.014;2022-07-22T20:19:08;15.18;;;9.68;;
23117;SDS011;11728;50.624;6.014;2022-07-22T20:24:24;19.10;;;10.45;;
23117;SDS011;11728;50.624;6.014;2022-07-22T20:29:25;16.25;;;9.98;;
23117;SDS011;11728;50.624;6.014;2022-07-22T20:34:41;16.52;;;9.65;;
23117;SDS011;11728;50.624;6.014;2022-07-22T20:39:54;12.95;;;8.20;;
23117;SDS011;11728;50.624;6.014;2022-07-22T20:44:55;15.50;;;10.32;;
23117;SDS011;11728;50.624;6.014;2022-07-22T20:50:11;11.73;;;9.45;;
23117;SDS011;11728;50.624;6.014;2022-07-22T20:55:27;13.05;;;9.95;;
23117;SDS011;11728;50.624;6.014;2022-07-22T21:00:31;13.35;;;10.07;;
23117;SDS011;11728;50.624;6.014;2022-07-22T21:05:44;15.70;;;9.18;;
23117;SDS011;11728;50.624;6.014;2022-07-22T21:11:01;14.25;;;9.43;;
23117;SDS011;11728;50.624;6.014;2022-07-22T21:16:02;17.20;;;10.73;;
23117;SDS011;11728;50.624;6.014;2022-07-22T21:21:18;14.38;;;10.45;;
23117;SDS011;11728;50.624;6.014;2022-07-22T21:26:31;13.05;;;9.85;;
23117;SDS011;11728;50.624;6.014;2022-07-22T21:31:31;11.35;;;7.28;;
23117;SDS011;11728;50.624;6.014;2022-07-22T21:36:47;11.40;;;6.38;;
23117;SDS011;11728;50.624;6.014;2022-07-22T21:42:06;9.93;;;5.85;;
23117;SDS011;11728;50.624;6.014;2022-07-22T21:47:07;8.93;;;6.20;;
23117;SDS011;11728;50.624;6.014;2022-07-22T21:52:22;10.88;;;6.25;;
23117;SDS011;11728;50.624;6.014;2022-07-22T21:57:35;11.73;;;6.38;;
23117;SDS011;11728;50.624;6.014;2022-07-22T22:02:43;10.18;;;6.65;;
23117;SDS011;11728;50.624;6.014;2022-07-22T22:07:53;10.60;;;6.70;;
23117;SDS011;11728;50.624;6.014;2022-07-22T22:13:12;10.05;;;6.32;;
23117;SDS011;11728;50.624;6.014;2022-07-22T22:18:12;7.05;;;5.50;;
23117;SDS011;11728;50.624;6.014;2022-07-22T22:23:29;15.80;;;6.03;;
23117;SDS011;11728;50.624;6.014;2022-07-22T22:28:42;10.00;;;6.55;;
23117;SDS011;11728;50.624;6.014;2022-07-22T22:33:45;14.63;;;6.97;;
23117;SDS011;11728;50.624;6.014;2022-07-22T22:38:56;14.35;;;7.53;;
23117;SDS011;11728;50.624;6.014;2022-07-22T22:44:13;11.50;;;7.22;;
23117;SDS011;11728;50.624;6.014;2022-07-22T22:49:14;9.90;;;6.80;;
23117;SDS011;11728;50.624;6.014;2022-07-22T22:54:29;13.18;;;7.25;;
23117;SDS011;11728;50.624;6.014;2022-07-22T22:59:42;14.43;;;7.85;;
23117;SDS011;11728;50.624;6.014;2022-07-22T23:04:46;11.40;;;7.60;;
23117;SDS011;11728;50.624;6.014;2022-07-22T23:10:02;13.88;;;8.95;;
23117;SDS011;11728;50.624;6.014;2022-07-22T23:15:13;17.88;;;10.85;;
23117;SDS011;11728;50.624;6.014;2022-07-22T23:20:20;15.88;;;11.50;;
23117;SDS011;11728;50.624;6.014;2022-07-22T23:25:41;16.98;;;13.25;;
23117;SDS011;11728;50.624;6.014;2022-07-22T23:30:45;18.73;;;13.93;;
23117;SDS011;11728;50.624;6.014;2022-07-22T23:35:51;20.95;;;14.20;;
23117;SDS011;11728;50.624;6.014;2022-07-22T23:41:04;16.50;;;13.50;;
23117;SDS011;11728;50.624;6.014;2022-07-22T23:46:20;19.55;;;13.18;;
23117;SDS011;11728;50.624;6.014;2022-07-22T23:51:23;20.00;;;12.57;;
23117;SDS011;11728;50.624;6.014;2022-07-22T23:56:39;18.17;;;13.65;;
